Time;durP1;ratioP1;P1;durP2;ratioP2;P2;SDS_P1;SDS_P2;PMS_P1;PMS_P2;Temp;Humidity;BMP_temperature;BMP_pressure;BME280_temperature;BME280_humidity;BME280_pressure;Samples;Min_cycle;Max_cycle;Signal;HPM_P1;HPM_P2
2023/01/19 00:02:22;;;;;;;17.70;14.50;;;;;;;3.77;70.15;100040.44;5048963;28;20497;-66
2023/01/19 00:04:47;;;;;;;17.40;14.00;;;;;;;3.77;70.01;100045.91;5048254;28;20392;-66
2023/01/19 00:07:13;;;;;;;15.65;12.93;;;;;;;3.79;69.77;100032.81;5050797;28;20079;-66
2023/01/19 00:09:39;;;;;;;16.95;13.98;;;;;;;3.76;69.87;100042.34;5051282;28;20037;-66
2023/01/19 00:12:04;;;;;;;14.63;13.10;;;;;;;3.74;70.11;100040.91;5049147;28;20025;-66
2023/01/19 00:14:30;;;;;;;16.90;13.52;;;;;;;3.71;70.39;100033.94;5049866;28;20068;-66
2023/01/19 00:16:55;;;;;;;15.57;13.07;;;;;;;3.71;70.28;100038.59;5049416;28;20029;-66
2023/01/19 00:19:20;;;;;;;15.23;13.63;;;;;;;3.71;70.50;100049.59;5047665;28;20415;-66
2023/01/19 00:21:46;;;;;;;18.85;13.20;;;;;;;3.73;70.40;100042.78;5048007;28;20056;-66
2023/01/19 00:24:12;;;;;;;19.00;14.13;;;;;;;3.78;70.31;100042.13;5050393;28;20383;-66
2023/01/19 00:26:39;;;;;;;14.93;13.13;;;;;;;3.76;69.98;100053.31;5050065;28;20090;-66
2023/01/19 00:29:06;;;;;;;18.30;14.15;;;;;;;3.78;70.21;100056.69;5050711;28;20036;-66
2023/01/19 00:31:32;;;;;;;16.25;13.35;;;;;;;3.79;70.58;100052.84;5052222;28;20033;-66
2023/01/19 00:33:58;;;;;;;17.23;13.30;;;;;;;3.77;70.09;100062.38;5047898;28;20124;-67
2023/01/19 00:36:24;;;;;;;17.83;13.20;;;;;;;3.77;70.58;100065.97;5048824;28;20120;-66
2023/01/19 00:38:49;;;;;;;17.77;12.68;;;;;;;3.80;70.45;100070.16;5049184;28;20053;-66
2023/01/19 00:41:15;;;;;;;17.45;12.55;;;;;;;3.78;70.39;100064.91;5049600;28;20079;-66
2023/01/19 00:43:40;;;;;;;17.30;13.40;;;;;;;3.79;70.56;100060.25;5051480;28;20537;-66
2023/01/19 00:46:05;;;;;;;15.60;13.48;;;;;;;3.82;70.19;100059.81;5049971;28;20814;-66
2023/01/19 00:48:30;;;;;;;17.25;13.02;;;;;;;3.82;70.16;100054.31;5050311;28;20033;-66
2023/01/19 00:50:56;;;;;;;18.13;14.02;;;;;;;3.81;70.41;100049.88;5047165;28;20032;-66
2023/01/19 00:53:21;;;;;;;17.13;13.27;;;;;;;3.84;69.86;100049.44;5047745;28;20032;-66
2023/01/19 00:55:46;;;;;;;19.27;13.65;;;;;;;3.82;70.26;100052.41;5049752;28;20480;-66
2023/01/19 00:58:12;;;;;;;17.60;13.75;;;;;;;3.81;70.01;100041.63;5050425;28;20103;-67
2023/01/19 01:00:37;;;;;;;16.83;12.85;;;;;;;3.82;69.70;100049.66;5047867;28;20494;-66
2023/01/19 01:03:03;;;;;;;17.40;13.77;;;;;;;3.80;69.91;100046.28;5048396;28;20039;-66
2023/01/19 01:05:28;;;;;;;18.92;13.38;;;;;;;3.78;69.58;100045.69;5050105;28;20049;-66
2023/01/19 01:07:54;;;;;;;17.00;13.15;;;;;;;3.80;69.74;100056.44;5048221;28;20108;-66
2023/01/19 01:10:23;;;;;;;16.63;12.95;;;;;;;3.76;69.69;100057.97;5042558;28;20048;-66
2023/01/19 01:12:49;;;;;;;16.40;13.10;;;;;;;3.75;70.15;100046.16;5032412;28;20042;-66
2023/01/19 01:15:16;;;;;;;15.85;13.20;;;;;;;3.74;69.63;100054.63;5050714;28;20068;-66
2023/01/19 01:17:46;;;;;;;16.35;13.23;;;;;;;3.72;69.82;100057.59;5049606;28;20086;-66
2023/01/19 01:20:21;;;;;;;17.48;12.77;;;;;;;3.70;69.50;100054.25;5050999;28;20028;-66
2023/01/19 01:22:49;;;;;;;19.05;13.23;;;;;;;3.63;70.05;100065.28;5040686;28;20040;-66
2023/01/19 01:25:16;;;;;;;17.50;12.75;;;;;;;3.64;70.15;100066.13;5048330;28;20047;-66
2023/01/19 01:27:42;;;;;;;15.32;12.18;;;;;;;3.67;70.24;100062.91;5043649;28;20075;-66
2023/01/19 01:30:09;;;;;;;17.38;12.25;;;;;;;3.69;69.78;100069.88;5049853;28;20033;-66
2023/01/19 01:32:35;;;;;;;15.25;12.05;;;;;;;3.76;69.51;100067.03;5049423;28;20033;-66
2023/01/19 01:35:00;;;;;;;17.55;12.45;;;;;;;3.79;70.00;100060.25;5051146;28;20376;-66
2023/01/19 01:37:25;;;;;;;16.73;12.32;;;;;;;3.81;69.91;100060.84;5050091;28;20049;-66
2023/01/19 01:39:51;;;;;;;17.52;12.10;;;;;;;3.82;69.62;100059.81;5050587;28;20037;-67
2023/01/19 01:42:18;;;;;;;16.10;11.60;;;;;;;3.83;69.63;100059.56;5047818;28;20032;-66
2023/01/19 01:44:51;;;;;;;16.48;11.63;;;;;;;3.85;69.54;100070.31;5042958;28;20037;-66
2023/01/19 01:47:39;;;;;;;13.57;11.98;;;;;;;3.87;69.37;100063.53;5050022;28;20056;-66
2023/01/19 01:50:15;;;;;;;15.07;10.93;;;;;;;3.86;69.70;100078.34;5049786;28;20037;-66
2023/01/19 01:52:49;;;;;;;16.02;11.23;;;;;;;3.86;69.84;100078.34;5049076;28;20083;-66
2023/01/19 01:55:16;;;;;;;12.73;10.50;;;;;;;3.84;69.81;100074.97;5049057;28;20033;-66
2023/01/19 01:57:48;;;;;;;15.73;11.02;;;;;;;3.84;70.20;100087.84;5048784;28;20051;-66
2023/01/19 02:00:14;;;;;;;15.30;11.60;;;;;;;3.83;70.53;100086.19;5050405;28;20120;-66
2023/01/19 02:02:49;;;;;;;16.67;10.32;;;;;;;3.82;70.17;100077.13;5046138;28;20041;-66
2023/01/19 02:05:28;;;;;;;13.85;10.50;;;;;;;3.82;70.31;100084.50;5048858;28;20024;-66
2023/01/19 02:13:45;;;;;;;15.48;10.30;;;;;;;3.71;70.87;100093.50;5049965;28;20400;-66
2023/01/19 02:16:12;;;;;;;13.45;9.35;;;;;;;3.67;70.67;100085.72;5049398;28;20104;-66
2023/01/19 02:18:38;;;;;;;13.35;9.35;;;;;;;3.62;71.55;100080.06;5043657;28;20082;-66
2023/01/19 02:21:21;;;;;;;12.15;9.15;;;;;;;3.59;71.35;100091.50;5046884;28;20034;-66
2023/01/19 02:23:49;;;;;;;15.73;9.48;;;;;;;3.58;71.73;100086.25;5047387;28;20037;-66
2023/01/19 02:26:19;;;;;;;15.88;9.32;;;;;;;3.58;71.58;100103.53;5046220;28;20023;-66
2023/01/19 02:28:58;;;;;;;16.52;9.25;;;;;;;3.60;71.82;100104.13;5047427;28;20043;-66
2023/01/19 02:31:25;;;;;;;14.00;9.40;;;;;;;3.56;71.82;100097.44;5048907;28;20072;-66
2023/01/19 02:33:51;;;;;;;13.23;9.55;;;;;;;3.57;72.30;100101.00;5049157;28;20031;-65
2023/01/19 02:36:21;;;;;;;13.65;8.95;;;;;;;3.57;72.50;100099.09;5042509;28;20036;-66
2023/01/19 02:38:48;;;;;;;13.88;9.65;;;;;;;3.58;72.11;100102.72;5044047;28;20075;-66
2023/01/19 02:41:19;;;;;;;12.70;9.27;;;;;;;3.61;72.06;100114.03;5053444;28;20092;-66
2023/01/19 02:43:46;;;;;;;16.27;10.35;;;;;;;3.57;72.33;100109.25;5053217;28;20078;-66
2023/01/19 02:46:13;;;;;;;14.00;10.07;;;;;;;3.56;72.36;100105.66;5052877;28;20036;-66
2023/01/19 02:48:38;;;;;;;14.93;10.20;;;;;;;3.56;72.67;100118.53;5047485;28;20492;-66
2023/01/19 02:51:12;;;;;;;15.25;10.70;;;;;;;3.52;72.68;100112.66;5047773;28;20033;-66
2023/01/19 02:54:03;;;;;;;14.55;10.65;;;;;;;3.51;72.67;100119.22;5042999;28;20036;-66
2023/01/19 02:56:50;;;;;;;11.57;9.88;;;;;;;3.49;72.36;100120.50;5044731;28;20024;-67
2023/01/19 02:59:34;;;;;;;18.55;10.80;;;;;;;3.52;72.53;100131.88;5051888;28;20047;-66
2023/01/19 03:02:16;;;;;;;10.77;9.77;;;;;;;3.46;72.15;100113.59;5051906;28;20139;-66
2023/01/19 03:04:59;;;;;;;14.35;9.52;;;;;;;3.40;72.41;100129.00;5046393;28;20037;-66
2023/01/19 03:07:56;;;;;;;11.88;10.68;;;;;;;3.39;72.65;100124.59;5051329;28;20048;-66
2023/01/19 03:10:44;;;;;;;12.27;10.38;;;;;;;3.38;72.50;100127.56;5043010;28;20037;-66
2023/01/19 03:13:15;;;;;;;12.10;10.38;;;;;;;3.33;72.12;100122.75;5046027;28;20028;-66
2023/01/19 03:15:49;;;;;;;12.38;11.00;;;;;;;3.33;72.75;100127.38;5052860;28;20032;-65
2023/01/19 03:18:19;;;;;;;12.68;11.18;;;;;;;3.29;72.26;100137.97;5053877;28;20388;-66
2023/01/19 03:20:45;;;;;;;12.63;11.32;;;;;;;3.29;72.69;100139.88;5051174;28;20033;-66
2023/01/19 03:23:13;;;;;;;15.50;12.02;;;;;;;3.27;72.23;100147.50;5051527;28;20029;-65
2023/01/19 03:25:42;;;;;;;13.40;11.23;;;;;;;3.26;72.27;100143.06;5051546;28;20455;-65
2023/01/19 03:28:08;;;;;;;12.20;10.90;;;;;;;3.29;72.30;100148.09;5050341;28;20057;-65
2023/01/19 03:30:41;;;;;;;12.10;10.88;;;;;;;3.27;72.63;100150.25;5052208;28;20036;-65
2023/01/19 03:33:26;;;;;;;11.50;10.30;;;;;;;3.28;72.51;100154.66;5051489;28;20025;-66
2023/01/19 03:35:56;;;;;;;11.45;10.35;;;;;;;3.24;72.67;100147.94;5053033;28;20391;-65
2023/01/19 03:38:26;;;;;;;12.55;11.25;;;;;;;3.21;72.67;100157.44;5048916;28;20049;-66
2023/01/19 03:40:57;;;;;;;11.70;10.60;;;;;;;3.21;72.77;100154.69;5051400;28;20484;-66
2023/01/19 03:43:24;;;;;;;12.02;10.90;;;;;;;3.21;72.03;100160.19;5051875;28;20090;-66
2023/01/19 03:45:51;;;;;;;12.00;10.70;;;;;;;3.19;72.50;100160.41;5051202;28;20040;-65
2023/01/19 03:48:19;;;;;;;12.52;11.20;;;;;;;3.21;72.51;100165.66;5050257;28;20120;-66
2023/01/19 03:50:45;;;;;;;10.90;9.90;;;;;;;3.17;72.24;100159.78;5048794;28;20434;-65
2023/01/19 03:53:15;;;;;;;11.60;10.43;;;;;;;3.16;72.36;100162.75;5049813;28;20035;-65
2023/01/19 03:55:43;;;;;;;11.30;10.20;;;;;;;3.14;72.21;100171.22;5051398;28;20108;-66
2023/01/19 03:58:09;;;;;;;10.57;9.65;;;;;;;3.15;72.21;100178.38;5050428;28;20032;-65
2023/01/19 04:00:35;;;;;;;10.25;9.35;;;;;;;3.17;72.40;100183.63;5051563;28;20094;-65
2023/01/19 04:03:05;;;;;;;10.82;9.88;;;;;;;3.15;72.35;100189.34;5052257;28;20745;-66
2023/01/19 04:05:31;;;;;;;10.45;9.45;;;;;;;3.14;72.52;100179.44;5035407;28;20431;-65
2023/01/19 04:07:57;;;;;;;9.63;8.82;;;;;;;3.19;72.53;100184.25;5049106;28;20055;-65
2023/01/19 04:10:22;;;;;;;9.15;8.38;;;;;;;3.17;72.79;100187.19;5052535;28;20033;-65
2023/01/19 04:12:48;;;;;;;8.77;7.97;;;;;;;3.14;72.16;100204.13;5050897;28;20464;-65
2023/01/19 04:15:14;;;;;;;9.30;8.43;;;;;;;3.11;72.31;100206.47;5049599;28;20029;-65
2023/01/19 04:17:40;;;;;;;8.30;7.60;;;;;;;3.14;72.42;100211.47;5051865;28;20029;-65
2023/01/19 04:20:07;;;;;;;7.10;6.50;;;;;;;3.15;72.27;100207.69;5051906;28;20457;-65
2023/01/19 04:22:32;;;;;;;7.30;6.70;;;;;;;3.14;72.38;100208.75;5046595;28;20127;-65
2023/01/19 04:24:58;;;;;;;6.38;5.88;;;;;;;3.15;72.72;100216.75;5048666;28;20457;-65
2023/01/19 04:27:24;;;;;;;5.88;5.47;;;;;;;3.15;72.75;100222.25;5049946;28;20033;-65
2023/01/19 04:29:50;;;;;;;5.88;5.38;;;;;;;3.10;72.42;100227.53;5052426;28;20024;-65
2023/01/19 04:32:15;;;;;;;5.70;5.20;;;;;;;3.16;72.91;100232.16;5051416;28;20108;-66
2023/01/19 04:34:41;;;;;;;5.18;4.75;;;;;;;3.13;72.15;100232.59;5048918;28;20041;-65
2023/01/19 04:37:07;;;;;;;4.18;3.78;;;;;;;3.12;72.77;100238.28;5049674;28;20025;-65
2023/01/19 04:39:33;;;;;;;4.60;4.25;;;;;;;3.06;72.38;100231.78;5049427;28;20112;-65
2023/01/19 04:41:58;;;;;;;3.92;3.63;;;;;;;3.06;72.95;100231.78;5050326;28;20131;-65
2023/01/19 04:44:23;;;;;;;4.22;3.83;;;;;;;3.05;72.92;100238.31;5050816;28;20542;-65
2023/01/19 04:46:50;;;;;;;4.45;4.15;;;;;;;3.05;72.58;100241.06;5051110;28;20043;-65
2023/01/19 04:49:15;;;;;;;4.38;3.97;;;;;;;3.01;73.05;100248.03;5049206;28;20036;-65
2023/01/19 04:51:41;;;;;;;4.57;4.15;;;;;;;2.98;73.05;100239.41;5049967;28;20033;-66
2023/01/19 04:54:07;;;;;;;4.13;3.72;;;;;;;2.99;73.10;100235.59;5048234;28;20535;-66
2023/01/19 04:56:33;;;;;;;3.95;3.65;;;;;;;2.96;72.95;100212.22;5046460;28;20025;-66
2023/01/19 04:58:58;;;;;;;4.00;3.70;;;;;;;2.93;73.14;100207.19;5050008;28;20041;-65
2023/01/19 05:01:24;;;;;;;3.80;3.50;;;;;;;2.98;73.42;100196.38;5049474;28;20369;-65
2023/01/19 05:03:49;;;;;;;4.53;3.80;;;;;;;2.98;73.50;100190.06;5050590;28;20037;-66
2023/01/19 05:06:14;;;;;;;3.90;3.60;;;;;;;3.04;73.28;100178.25;5050831;28;20068;-65
2023/01/19 05:08:39;;;;;;;4.25;3.95;;;;;;;3.04;72.73;100179.06;5050432;28;20087;-66
2023/01/19 05:11:05;;;;;;;4.72;4.40;;;;;;;3.04;73.06;100183.72;5050155;28;20032;-66
2023/01/19 05:13:30;;;;;;;4.30;3.97;;;;;;;3.06;73.23;100185.16;5042038;28;20377;-65
2023/01/19 05:15:55;;;;;;;4.45;4.05;;;;;;;3.08;73.15;100176.72;5049160;28;20048;-65
2023/01/19 05:18:20;;;;;;;4.80;4.40;;;;;;;3.10;72.95;100169.94;5051161;28;20025;-66
2023/01/19 05:20:46;;;;;;;4.40;4.00;;;;;;;3.10;72.92;100178.19;5050689;28;20377;-65
2023/01/19 05:23:11;;;;;;;4.05;3.75;;;;;;;3.07;72.73;100173.16;5048380;28;20048;-65
2023/01/19 05:25:37;;;;;;;4.28;3.97;;;;;;;3.06;72.80;100179.69;5049150;28;20473;-65
2023/01/19 05:28:02;;;;;;;4.22;3.90;;;;;;;3.07;73.24;100181.38;5050746;28;20110;-66
2023/01/19 05:30:28;;;;;;;5.47;4.72;;;;;;;3.10;72.84;100193.78;5041415;28;20025;-66
2023/01/19 05:32:53;;;;;;;5.85;5.35;;;;;;;3.10;73.22;100204.75;5049159;28;20025;-66
2023/01/19 05:35:18;;;;;;;6.72;6.13;;;;;;;3.11;72.92;100211.94;5047644;28;20033;-65
2023/01/19 05:37:44;;;;;;;6.82;6.22;;;;;;;3.14;73.00;100204.13;5051126;28;20083;-65
2023/01/19 05:40:10;;;;;;;7.60;6.93;;;;;;;3.15;73.15;100208.53;5047700;28;20103;-66
2023/01/19 05:42:36;;;;;;;8.65;7.85;;;;;;;3.15;72.93;100210.44;5033988;28;20069;-65
2023/01/19 05:45:01;;;;;;;8.98;8.07;;;;;;;3.10;72.80;100208.34;5048493;28;20499;-65
2023/01/19 05:47:30;;;;;;;8.27;7.57;;;;;;;3.05;73.21;100210.91;5047517;28;20136;-65
2023/01/19 05:49:55;;;;;;;9.27;8.38;;;;;;;3.04;72.89;100219.38;5050328;28;20417;-65
2023/01/19 05:52:21;;;;;;;9.23;8.18;;;;;;;3.03;73.24;100224.00;5049041;28;20116;-66
2023/01/19 05:54:47;;;;;;;9.40;8.50;;;;;;;3.02;72.96;100210.50;5047738;28;20039;-65
2023/01/19 05:57:12;;;;;;;9.75;8.75;;;;;;;3.03;73.10;100210.31;5049807;28;20419;-65
2023/01/19 05:59:37;;;;;;;9.13;8.27;;;;;;;3.04;72.97;100222.09;5047921;28;20060;-66
2023/01/19 06:02:03;;;;;;;9.40;8.43;;;;;;;3.02;73.25;100211.34;5038629;28;20062;-66
2023/01/19 06:04:28;;;;;;;9.20;8.30;;;;;;;3.05;73.28;100221.03;5047270;28;20086;-65
2023/01/19 06:06:53;;;;;;;10.80;9.05;;;;;;;3.05;73.44;100223.78;5049087;28;20061;-65
2023/01/19 06:09:19;;;;;;;9.95;8.95;;;;;;;3.06;73.06;100230.94;5045569;28;20029;-65
2023/01/19 06:11:44;;;;;;;9.27;8.38;;;;;;;3.08;73.11;100232.41;5048344;28;20082;-67
2023/01/19 06:14:10;;;;;;;10.13;9.20;;;;;;;3.07;73.42;100230.75;5045792;28;20053;-66
2023/01/19 06:16:35;;;;;;;10.20;9.30;;;;;;;3.09;73.40;100233.25;5045293;28;20134;-66
2023/01/19 06:19:01;;;;;;;10.55;9.45;;;;;;;3.11;73.25;100237.47;5044613;28;20043;-66
2023/01/19 06:21:26;;;;;;;11.48;10.20;;;;;;;3.10;73.11;100238.50;5045009;28;20043;-66
2023/01/19 06:23:52;;;;;;;11.85;9.43;;;;;;;3.10;73.03;100245.88;5041891;28;20037;-66
2023/01/19 06:26:17;;;;;;;11.48;10.18;;;;;;;3.08;73.35;100251.59;5038713;28;20496;-68
2023/01/19 06:28:42;;;;;;;12.90;9.95;;;;;;;3.11;73.55;100237.47;5041811;28;20022;-66
2023/01/19 06:31:07;;;;;;;11.05;9.95;;;;;;;3.12;73.60;100244.63;5037662;28;20802;-66
2023/01/19 06:33:33;;;;;;;11.57;10.43;;;;;;;3.12;73.07;100250.09;5046880;28;20025;-66
2023/01/19 06:35:58;;;;;;;11.73;10.60;;;;;;;3.13;73.23;100250.94;5042907;28;20045;-66
2023/01/19 06:38:24;;;;;;;11.88;10.88;;;;;;;3.14;73.19;100256.22;5046755;28;20148;-66
2023/01/19 06:40:57;;;;;;;12.57;11.35;;;;;;;3.14;73.57;100252.63;5048714;28;20111;-66
2023/01/19 06:43:22;;;;;;;13.10;11.68;;;;;;;3.13;73.14;100262.75;5047036;28;20037;-66
2023/01/19 06:45:49;;;;;;;13.57;12.18;;;;;;;3.13;73.16;100256.44;5041609;28;20079;-66
2023/01/19 06:48:14;;;;;;;14.02;12.57;;;;;;;3.12;73.49;100271.19;5048454;28;20071;-66
2023/01/19 06:50:40;;;;;;;15.02;13.23;;;;;;;3.09;73.39;100275.22;5045248;28;20025;-66
2023/01/19 06:53:05;;;;;;;14.63;13.32;;;;;;;3.06;73.49;100275.63;5029943;28;20135;-66
2023/01/19 06:55:30;;;;;;;16.55;14.43;;;;;;;3.04;73.92;100279.69;5036180;28;20037;-66
2023/01/19 06:57:58;;;;;;;17.38;15.63;;;;;;;3.02;74.08;100288.09;5046372;28;20033;-66
2023/01/19 07:00:25;;;;;;;17.45;15.52;;;;;;;2.97;74.16;100290.66;5045343;28;20098;-66
2023/01/19 07:02:50;;;;;;;17.35;15.65;;;;;;;3.00;73.52;100297.63;5044547;28;20029;-66
2023/01/19 07:05:15;;;;;;;17.33;15.63;;;;;;;3.00;74.21;100295.72;5044999;28;20047;-66
2023/01/19 07:07:43;;;;;;;18.17;16.42;;;;;;;3.02;73.85;100301.81;5043947;28;20032;-66
2023/01/19 07:10:10;;;;;;;18.55;16.67;;;;;;;3.00;73.85;100300.38;5037169;28;20028;-66
2023/01/19 07:12:37;;;;;;;17.70;15.85;;;;;;;3.00;74.06;100317.66;5040245;28;20084;-66
2023/01/19 07:15:02;;;;;;;18.38;16.58;;;;;;;3.00;74.13;100308.59;5045461;28;20136;-66
2023/01/19 07:17:28;;;;;;;20.02;17.17;;;;;;;3.01;74.10;100310.25;5044388;28;20294;-67
2023/01/19 07:19:53;;;;;;;19.83;16.15;;;;;;;3.05;74.60;100314.25;5045596;28;20983;-67
2023/01/19 07:22:18;;;;;;;20.88;17.00;;;;;;;3.04;74.14;100310.69;5044833;28;20045;-66
2023/01/19 07:24:44;;;;;;;22.02;18.02;;;;;;;3.07;74.70;100309.41;5046616;28;20107;-68
2023/01/19 07:27:10;;;;;;;21.05;18.15;;;;;;;3.08;74.55;100322.91;5027992;28;20059;-67
2023/01/19 07:29:36;;;;;;;19.27;17.23;;;;;;;3.07;74.61;100323.97;5041471;28;20577;-67
2023/01/19 07:32:01;;;;;;;20.20;18.27;;;;;;;3.07;74.14;100323.97;5050211;28;20029;-67
2023/01/19 07:34:26;;;;;;;23.90;20.48;;;;;;;3.10;74.32;100330.88;5050242;28;20053;-68
2023/01/19 07:36:52;;;;;;;22.27;19.13;;;;;;;3.11;74.15;100330.69;5044643;28;20480;-67
2023/01/19 07:39:17;;;;;;;23.98;19.42;;;;;;;3.12;74.38;100332.38;5038455;28;20062;-64
2023/01/19 07:41:42;;;;;;;23.10;20.63;;;;;;;3.14;74.51;100341.22;5039408;28;20052;-64
2023/01/19 07:44:08;;;;;;;24.70;19.83;;;;;;;3.12;74.24;100337.84;5047835;28;20047;-67
2023/01/19 07:46:33;;;;;;;22.90;18.65;;;;;;;3.11;73.99;100341.66;5046098;28;20021;-63
2023/01/19 07:48:59;;;;;;;26.33;19.88;;;;;;;3.12;74.68;100347.97;5050286;28;20024;-66
2023/01/19 07:51:26;;;;;;;27.40;19.58;;;;;;;3.11;74.23;100349.03;5049921;28;20502;-64
2023/01/19 07:53:51;;;;;;;22.30;18.90;;;;;;;3.12;74.12;100356.22;5042262;28;20095;-65
2023/01/19 07:56:17;;;;;;;25.55;18.73;;;;;;;3.13;74.06;100349.66;5045981;28;20493;-66
2023/01/19 07:58:42;;;;;;;22.90;18.58;;;;;;;3.14;73.61;100356.81;5042735;28;20052;-66
2023/01/19 08:01:09;;;;;;;20.20;17.67;;;;;;;3.14;73.88;100356.81;5048747;28;20042;-66
2023/01/19 08:03:35;;;;;;;27.23;20.17;;;;;;;3.13;74.30;100371.59;5040921;28;20029;-66
2023/01/19 08:06:01;;;;;;;22.52;17.60;;;;;;;3.12;73.94;100375.41;5034603;28;20035;-66
2023/01/19 08:08:28;;;;;;;26.80;19.88;;;;;;;3.11;73.96;100374.56;5041425;28;20029;-65
2023/01/19 08:10:53;;;;;;;25.88;19.20;;;;;;;3.13;74.31;100375.19;5041692;28;20516;-65
2023/01/19 08:13:19;;;;;;;28.05;21.67;;;;;;;3.11;73.83;100371.81;5048238;28;20120;-66
2023/01/19 08:15:48;;;;;;;28.75;20.35;;;;;;;3.15;74.03;100375.81;5039130;28;20021;-67
2023/01/19 08:18:14;;;;;;;27.77;20.80;;;;;;;3.16;74.16;100382.97;5048877;28;20076;-67
2023/01/19 08:20:39;;;;;;;29.48;21.60;;;;;;;3.12;74.61;100384.47;5046332;28;20051;-66
2023/01/19 08:23:05;;;;;;;30.77;21.17;;;;;;;3.14;73.87;100392.47;5049142;28;20476;-68
2023/01/19 08:25:39;;;;;;;29.45;22.00;;;;;;;3.14;74.00;100397.94;5047885;28;20072;-68
2023/01/19 08:28:06;;;;;;;32.67;23.05;;;;;;;3.13;74.51;100394.38;5049402;28;20025;-65
2023/01/19 08:30:32;;;;;;;31.33;22.67;;;;;;;3.12;73.96;100400.91;5044363;28;20468;-65
2023/01/19 08:33:02;;;;;;;30.20;21.35;;;;;;;3.11;73.83;100404.72;5045467;28;20028;-68
2023/01/19 08:35:36;;;;;;;31.50;22.60;;;;;;;3.16;74.38;100409.56;5043865;28;20036;-67
2023/01/19 08:38:04;;;;;;;30.95;22.50;;;;;;;3.11;74.21;100415.69;5046275;28;20049;-65
2023/01/19 08:40:34;;;;;;;31.33;22.80;;;;;;;3.14;74.00;100414.41;5046414;28;20025;-65
2023/01/19 08:43:04;;;;;;;38.65;24.75;;;;;;;3.15;73.87;100419.69;5049428;28;20033;-67
2023/01/19 08:45:30;;;;;;;31.02;23.20;;;;;;;3.15;74.08;100419.69;5047154;28;20042;-67
2023/01/19 08:47:58;;;;;;;36.33;24.23;;;;;;;3.14;74.42;100426.25;5046910;28;20044;-67
2023/01/19 08:50:24;;;;;;;37.15;24.00;;;;;;;3.18;73.96;100429.38;5045580;28;20041;-66
2023/01/19 08:52:49;;;;;;;38.28;24.95;;;;;;;3.13;74.45;100434.66;5049117;28;20392;-65
2023/01/19 08:55:15;;;;;;;38.17;24.23;;;;;;;3.11;74.07;100437.63;5050732;28;20020;-66
2023/01/19 08:57:41;;;;;;;42.08;25.67;;;;;;;3.13;74.40;100443.72;5044840;28;20104;-66
2023/01/19 09:00:07;;;;;;;44.85;25.38;;;;;;;3.12;74.17;100442.06;5049224;28;20032;-64
2023/01/19 09:02:33;;;;;;;39.20;25.90;;;;;;;3.12;74.14;100444.78;5045935;28;20041;-65
2023/01/19 09:04:58;;;;;;;40.70;25.45;;;;;;;3.14;74.51;100442.69;5033637;28;20493;-65
2023/01/19 09:07:24;;;;;;;40.03;25.25;;;;;;;3.10;74.53;100454.28;5045246;28;20115;-65
2023/01/19 09:09:49;;;;;;;41.53;25.85;;;;;;;3.06;74.78;100453.03;5044194;28;20422;-64
2023/01/19 09:12:15;;;;;;;42.60;26.30;;;;;;;3.08;74.55;100457.25;5044278;28;20036;-65
2023/01/19 09:14:40;;;;;;;40.67;25.77;;;;;;;3.10;74.75;100446.06;5045750;28;20100;-67
2023/01/19 09:17:06;;;;;;;41.80;27.00;;;;;;;3.11;74.83;100451.34;5034494;28;20448;-65
2023/01/19 09:19:31;;;;;;;46.00;28.27;;;;;;;3.15;74.94;100452.59;5049068;28;20032;-65
2023/01/19 09:21:58;;;;;;;44.75;28.25;;;;;;;3.20;74.94;100461.03;5044551;28;20560;-66
2023/01/19 09:24:26;;;;;;;45.25;28.52;;;;;;;3.22;74.48;100462.69;5044332;28;20098;-66
2023/01/19 09:26:51;;;;;;;39.22;26.40;;;;;;;3.23;74.28;100459.75;5030910;28;20026;-66
2023/01/19 09:29:17;;;;;;;39.47;26.90;;;;;;;3.24;74.84;100455.94;5031765;28;20044;-66
2023/01/19 09:31:42;;;;;;;37.53;25.55;;;;;;;3.28;74.36;100464.59;5031155;28;20503;-66
2023/01/19 09:34:09;;;;;;;38.92;26.17;;;;;;;3.32;74.43;100458.47;5039235;28;20024;-66
2023/01/19 09:36:36;;;;;;;40.97;24.90;;;;;;;3.36;74.28;100458.88;5050066;28;20040;-65
2023/01/19 09:39:01;;;;;;;39.45;25.95;;;;;;;3.40;74.35;100466.44;5050484;28;20037;-65
2023/01/19 09:41:28;;;;;;;38.95;24.83;;;;;;;3.42;74.45;100469.84;5047935;28;20422;-65
2023/01/19 09:43:59;;;;;;;32.47;23.17;;;;;;;3.48;73.89;100472.75;5050581;28;20036;-66
2023/01/19 09:46:32;;;;;;;40.75;24.13;;;;;;;3.53;73.98;100473.78;5050496;28;20103;-66
2023/01/19 09:49:03;;;;;;;34.10;22.30;;;;;;;3.61;73.80;100479.03;5050178;28;20021;-65
2023/01/19 09:51:37;;;;;;;34.03;21.67;;;;;;;3.69;73.52;100484.31;5046635;28;20040;-66
2023/01/19 09:54:14;;;;;;;36.60;22.20;;;;;;;3.83;73.81;100476.84;5050008;28;20029;-66
2023/01/19 09:56:41;;;;;;;34.70;23.13;;;;;;;3.94;73.58;100487.16;5045573;28;20029;-66
2023/01/19 09:59:18;;;;;;;31.42;22.00;;;;;;;4.00;73.00;100488.16;5050712;28;20017;-65
2023/01/19 10:02:11;;;;;;;37.38;22.75;;;;;;;4.08;72.77;100485.16;5049589;28;20112;-66
2023/01/19 10:04:40;;;;;;;31.30;20.33;;;;;;;4.07;72.61;100494.47;5050213;28;20518;-65
2023/01/19 10:07:22;;;;;;;32.38;21.70;;;;;;;4.06;72.85;100498.28;5050588;28;20033;-66
2023/01/19 10:10:11;;;;;;;27.80;18.67;;;;;;;4.12;72.95;100505.63;5036687;28;20039;-66
2023/01/19 10:12:54;;;;;;;28.15;18.17;;;;;;;4.11;72.68;100509.44;5050032;28;20496;-66
2023/01/19 10:15:25;;;;;;;28.13;18.48;;;;;;;4.09;72.70;100506.09;5049429;28;20384;-66
2023/01/19 10:18:09;;;;;;;23.95;17.52;;;;;;;4.08;72.74;100507.13;5050011;28;20104;-66
2023/01/19 10:20:40;;;;;;;24.33;17.80;;;;;;;4.09;73.11;100508.00;5050501;28;20104;-66
2023/01/19 10:23:21;;;;;;;25.05;16.98;;;;;;;4.15;72.95;100512.59;5048320;28;20554;-66
2023/01/19 10:25:46;;;;;;;26.60;18.05;;;;;;;4.17;72.77;100505.00;5032555;28;20031;-63
2023/01/19 10:28:13;;;;;;;30.45;17.13;;;;;;;4.25;72.98;100509.41;5049532;28;20432;-63
2023/01/19 10:30:41;;;;;;;27.08;18.25;;;;;;;4.30;72.96;100515.06;5049244;28;20571;-62
2023/01/19 10:33:10;;;;;;;27.75;17.30;;;;;;;4.37;72.75;100510.38;5046147;28;20029;-64
2023/01/19 10:35:35;;;;;;;26.33;17.23;;;;;;;4.46;72.60;100511.78;5049109;28;20511;-60
2023/01/19 10:38:01;;;;;;;28.73;16.05;;;;;;;4.54;72.07;100508.78;5048353;28;20052;-65
2023/01/19 10:40:49;;;;;;;26.42;16.95;;;;;;;4.68;72.21;100515.03;5049774;28;20120;-63
2023/01/19 10:43:33;;;;;;;24.63;15.65;;;;;;;4.75;72.06;100509.47;5035111;28;20523;-66
2023/01/19 10:45:58;;;;;;;26.48;16.38;;;;;;;4.77;71.70;100508.19;5039865;28;20037;-67
2023/01/19 10:48:23;;;;;;;23.73;15.48;;;;;;;4.80;71.60;100516.00;5049071;28;20353;-64
2023/01/19 10:51:01;;;;;;;22.38;15.45;;;;;;;4.86;71.88;100509.56;5046981;28;20025;-63
2023/01/19 10:53:26;;;;;;;25.13;15.98;;;;;;;4.91;71.22;100515.28;5046936;28;20491;-66
2023/01/19 10:56:09;;;;;;;23.98;14.40;;;;;;;5.02;71.91;100512.84;5048895;28;20032;-66
2023/01/19 10:58:35;;;;;;;;;;;;;;;5.12;71.99;100514.03;5051121;28;20485;-67
2023/01/19 11:01:18;;;;;;;23.52;15.82;;;;;;;5.11;71.18;100520.59;5047434;28;19955;-65
2023/01/19 11:03:44;;;;;;;28.00;16.40;;;;;;;5.13;70.77;100515.69;5042666;28;20033;-67
2023/01/19 11:06:12;;;;;;;22.55;14.85;;;;;;;5.16;71.15;100526.25;5041140;28;20040;-65
2023/01/19 11:08:38;;;;;;;26.33;15.55;;;;;;;5.18;70.44;100513.09;5047556;28;20021;-69
2023/01/19 11:11:06;;;;;;;25.35;15.57;;;;;;;5.22;70.19;100512.66;5050012;28;20024;-70
2023/01/19 11:13:32;;;;;;;23.80;16.20;;;;;;;5.28;71.01;100522.78;5049478;28;20405;-70
2023/01/19 11:16:22;;;;;;;22.50;15.63;;;;;;;5.30;70.82;100521.47;5052048;28;20035;-69
2023/01/19 11:18:52;;;;;;;25.60;16.40;;;;;;;5.30;70.80;100515.94;5043996;28;20033;-69
2023/01/19 11:21:23;;;;;;;23.98;15.57;;;;;;;5.34;70.56;100519.09;5052050;28;20032;-68
2023/01/19 11:23:51;;;;;;;25.07;16.83;;;;;;;5.35;70.67;100507.88;5050496;28;20036;-68
2023/01/19 11:26:26;;;;;;;23.63;16.60;;;;;;;5.41;70.94;100517.13;5046549;28;20107;-68
2023/01/19 11:28:55;;;;;;;44.55;24.33;;;;;;;5.39;70.72;100516.53;5049101;28;20120;-68
2023/01/19 11:31:33;;;;;;;34.28;20.02;;;;;;;5.44;70.79;100510.34;5053143;28;20029;-68
2023/01/19 11:34:04;;;;;;;30.80;19.35;;;;;;;5.43;70.49;100506.75;5049438;28;20028;-68